sensor_id;sensor_type;location;lat;lon;timestamp;temperature;humidity
7970;DHT22;4030;52.362;9.206;2023-09-07T00:00:15;24.20;57.30
7970;DHT22;4030;52.362;9.206;2023-09-07T00:02:41;24.20;57.40
7970;DHT22;4030;52.362;9.206;2023-09-07T00:05:07;24.20;57.60
7970;DHT22;4030;52.362;9.206;2023-09-07T00:07:34;24.20;57.60
7970;DHT22;4030;52.362;9.206;2023-09-07T00:09:59;24.20;57.60
7970;DHT22;4030;52.362;9.206;2023-09-07T00:12:26;24.20;57.70
7970;DHT22;4030;52.362;9.206;2023-09-07T00:14:53;24.10;57.70
7970;DHT22;4030;52.362;9.206;2023-09-07T00:17:19;24.10;57.80
7970;DHT22;4030;52.362;9.206;2023-09-07T00:19:45;24.00;57.60
7970;DHT22;4030;52.362;9.206;2023-09-07T00:22:14;24.10;57.80
7970;DHT22;4030;52.362;9.206;2023-09-07T00:24:40;24.00;57.80
7970;DHT22;4030;52.362;9.206;2023-09-07T00:27:06;23.90;57.80
7970;DHT22;4030;52.362;9.206;2023-09-07T00:29:34;23.90;57.90
7970;DHT22;4030;52.362;9.206;2023-09-07T00:32:00;23.90;57.90
7970;DHT22;4030;52.362;9.206;2023-09-07T00:34:26;23.90;58.10
7970;DHT22;4030;52.362;9.206;2023-09-07T00:36:52;23.80;58.10
7970;DHT22;4030;52.362;9.206;2023-09-07T00:39:17;23.80;58.20
7970;DHT22;4030;52.362;9.206;2023-09-07T00:41:43;23.80;58.20
7970;DHT22;4030;52.362;9.206;2023-09-07T00:44:09;23.80;58.30
7970;DHT22;4030;52.362;9.206;2023-09-07T00:46:34;23.70;58.30
7970;DHT22;4030;52.362;9.206;2023-09-07T00:49:01;23.70;58.40
7970;DHT22;4030;52.362;9.206;2023-09-07T00:51:28;23.70;58.50
7970;DHT22;4030;52.362;9.206;2023-09-07T00:53:54;23.60;58.50
7970;DHT22;4030;52.362;9.206;2023-09-07T00:56:20;23.60;58.60
7970;DHT22;4030;52.362;9.206;2023-09-07T00:58:46;23.60;58.70
7970;DHT22;4030;52.362;9.206;2023-09-07T01:01:11;23.60;58.80
7970;DHT22;4030;52.362;9.206;2023-09-07T01:03:37;23.60;58.90
7970;DHT22;4030;52.362;9.206;2023-09-07T01:08:51;23.50;58.90
7970;DHT22;4030;52.362;9.206;2023-09-07T01:11:19;23.50;59.00
7970;DHT22;4030;52.362;9.206;2023-09-07T01:13:49;23.40;59.10
7970;DHT22;4030;52.362;9.206;2023-09-07T01:16:15;23.40;59.10
7970;DHT22;4030;52.362;9.206;2023-09-07T01:18:42;23.40;59.20
7970;DHT22;4030;52.362;9.206;2023-09-07T01:21:08;23.40;59.30
7970;DHT22;4030;52.362;9.206;2023-09-07T01:23:39;23.30;59.30
7970;DHT22;4030;52.362;9.206;2023-09-07T01:26:07;23.30;59.40
7970;DHT22;4030;52.362;9.206;2023-09-07T01:28:35;23.30;59.40
7970;DHT22;4030;52.362;9.206;2023-09-07T01:31:00;23.30;59.50
7970;DHT22;4030;52.362;9.206;2023-09-07T01:33:29;23.30;59.60
7970;DHT22;4030;52.362;9.206;2023-09-07T01:35:55;23.30;59.60
7970;DHT22;4030;52.362;9.206;2023-09-07T01:38:21;23.20;59.70
7970;DHT22;4030;52.362;9.206;2023-09-07T01:40:47;23.20;59.70
7970;DHT22;4030;52.362;9.206;2023-09-07T01:43:12;23.10;59.70
7970;DHT22;4030;52.362;9.206;2023-09-07T01:45:38;23.20;59.90
7970;DHT22;4030;52.362;9.206;2023-09-07T01:48:10;23.20;59.90
7970;DHT22;4030;52.362;9.206;2023-09-07T01:50:37;23.00;59.80
7970;DHT22;4030;52.362;9.206;2023-09-07T01:53:02;23.00;60.00
7970;DHT22;4030;52.362;9.206;2023-09-07T01:55:30;23.00;60.90
7970;DHT22;4030;52.362;9.206;2023-09-07T01:57:56;22.90;60.00
7970;DHT22;4030;52.362;9.206;2023-09-07T02:00:22;23.00;60.20
7970;DHT22;4030;52.362;9.206;2023-09-07T02:02:47;22.90;60.30
7970;DHT22;4030;52.362;9.206;2023-09-07T02:05:13;22.90;60.30
7970;DHT22;4030;52.362;9.206;2023-09-07T02:07:39;22.90;60.40
7970;DHT22;4030;52.362;9.206;2023-09-07T02:10:05;22.90;60.50
7970;DHT22;4030;52.362;9.206;2023-09-07T02:12:31;22.80;60.50
7970;DHT22;4030;52.362;9.206;2023-09-07T02:15:00;22.70;60.40
7970;DHT22;4030;52.362;9.206;2023-09-07T02:17:27;22.70;60.50
7970;DHT22;4030;52.362;9.206;2023-09-07T02:19:53;22.80;60.70
7970;DHT22;4030;52.362;9.206;2023-09-07T02:22:19;22.70;60.70
7970;DHT22;4030;52.362;9.206;2023-09-07T02:24:44;22.60;60.70
7970;DHT22;4030;52.362;9.206;2023-09-07T02:27:10;22.60;60.70
7970;DHT22;4030;52.362;9.206;2023-09-07T02:29:36;22.60;60.80
7970;DHT22;4030;52.362;9.206;2023-09-07T02:32:02;22.60;60.90
7970;DHT22;4030;52.362;9.206;2023-09-07T02:34:29;22.60;60.90
7970;DHT22;4030;52.362;9.206;2023-09-07T02:36:55;22.50;61.00
7970;DHT22;4030;52.362;9.206;2023-09-07T02:39:22;22.60;61.20
7970;DHT22;4030;52.362;9.206;2023-09-07T02:41:52;22.50;61.20
7970;DHT22;4030;52.362;9.206;2023-09-07T02:44:18;22.50;61.20
7970;DHT22;4030;52.362;9.206;2023-09-07T02:46:43;22.50;61.30
7970;DHT22;4030;52.362;9.206;2023-09-07T02:49:09;22.50;61.40
7970;DHT22;4030;52.362;9.206;2023-09-07T02:51:35;22.40;61.40
7970;DHT22;4030;52.362;9.206;2023-09-07T02:54:02;22.40;61.50
7970;DHT22;4030;52.362;9.206;2023-09-07T02:56:28;22.40;61.60
7970;DHT22;4030;52.362;9.206;2023-09-07T02:58:54;22.30;61.50
7970;DHT22;4030;52.362;9.206;2023-09-07T03:01:21;22.30;61.60
7970;DHT22;4030;52.362;9.206;2023-09-07T03:03:47;22.30;61.70
7970;DHT22;4030;52.362;9.206;2023-09-07T03:06:15;22.30;61.80
7970;DHT22;4030;52.362;9.206;2023-09-07T03:08:45;22.20;61.90
7970;DHT22;4030;52.362;9.206;2023-09-07T03:11:11;22.20;61.90
7970;DHT22;4030;52.362;9.206;2023-09-07T03:13:37;22.20;62.00
7970;DHT22;4030;52.362;9.206;2023-09-07T03:16:04;22.20;62.00
7970;DHT22;4030;52.362;9.206;2023-09-07T03:18:30;22.10;62.80
7970;DHT22;4030;52.362;9.206;2023-09-07T03:20:59;22.10;62.10
7970;DHT22;4030;52.362;9.206;2023-09-07T03:23:26;22.10;62.10
7970;DHT22;4030;52.362;9.206;2023-09-07T03:25:52;22.10;62.10
7970;DHT22;4030;52.362;9.206;2023-09-07T03:28:18;22.00;62.10
7970;DHT22;4030;52.362;9.206;2023-09-07T03:30:44;22.10;62.30
7970;DHT22;4030;52.362;9.206;2023-09-07T03:33:09;22.00;62.30
7970;DHT22;4030;52.362;9.206;2023-09-07T03:35:35;22.00;62.40
7970;DHT22;4030;52.362;9.206;2023-09-07T03:38:01;22.00;62.60
7970;DHT22;4030;52.362;9.206;2023-09-07T03:40:26;21.90;62.70
7970;DHT22;4030;52.362;9.206;2023-09-07T03:42:52;21.90;62.80
7970;DHT22;4030;52.362;9.206;2023-09-07T03:45:18;21.90;62.90
7970;DHT22;4030;52.362;9.206;2023-09-07T03:47:43;21.90;62.90
7970;DHT22;4030;52.362;9.206;2023-09-07T03:50:10;21.90;62.90
7970;DHT22;4030;52.362;9.206;2023-09-07T03:52:36;21.90;63.00
7970;DHT22;4030;52.362;9.206;2023-09-07T03:55:02;21.80;63.00
7970;DHT22;4030;52.362;9.206;2023-09-07T03:57:28;21.80;63.10
7970;DHT22;4030;52.362;9.206;2023-09-07T03:59:54;21.80;63.30
7970;DHT22;4030;52.362;9.206;2023-09-07T04:02:21;21.70;63.10
7970;DHT22;4030;52.362;9.206;2023-09-07T04:04:49;21.80;63.30
7970;DHT22;4030;52.362;9.206;2023-09-07T04:07:15;21.70;63.30
7970;DHT22;4030;52.362;9.206;2023-09-07T04:09:41;21.70;63.40
7970;DHT22;4030;52.362;9.206;2023-09-07T04:12:08;21.70;63.40
7970;DHT22;4030;52.362;9.206;2023-09-07T04:14:34;21.70;63.60
7970;DHT22;4030;52.362;9.206;2023-09-07T04:17:00;21.60;63.50
7970;DHT22;4030;52.362;9.206;2023-09-07T04:19:26;21.60;63.60
7970;DHT22;4030;52.362;9.206;2023-09-07T04:21:52;21.60;63.80
7970;DHT22;4030;52.362;9.206;2023-09-07T04:24:18;21.40;63.70
7970;DHT22;4030;52.362;9.206;2023-09-07T04:26:44;21.60;64.00
7970;DHT22;4030;52.362;9.206;2023-09-07T04:29:09;21.50;64.10
7970;DHT22;4030;52.362;9.206;2023-09-07T04:31:37;21.50;64.20
7970;DHT22;4030;52.362;9.206;2023-09-07T04:34:02;21.40;64.20
7970;DHT22;4030;52.362;9.206;2023-09-07T04:36:28;21.50;64.50
7970;DHT22;4030;52.362;9.206;2023-09-07T04:38:54;21.40;64.60
7970;DHT22;4030;52.362;9.206;2023-09-07T04:41:20;21.40;64.70
7970;DHT22;4030;52.362;9.206;2023-09-07T04:43:45;21.40;64.70
7970;DHT22;4030;52.362;9.206;2023-09-07T04:46:12;21.40;64.90
7970;DHT22;4030;52.362;9.206;2023-09-07T04:48:39;21.30;64.90
7970;DHT22;4030;52.362;9.206;2023-09-07T04:51:09;21.30;65.10
7970;DHT22;4030;52.362;9.206;2023-09-07T04:53:38;21.30;65.10
7970;DHT22;4030;52.362;9.206;2023-09-07T04:56:06;21.30;65.10
7970;DHT22;4030;52.362;9.206;2023-09-07T04:58:33;21.30;65.20
7970;DHT22;4030;52.362;9.206;2023-09-07T05:01:04;21.30;65.30
7970;DHT22;4030;52.362;9.206;2023-09-07T05:03:31;21.20;65.10
7970;DHT22;4030;52.362;9.206;2023-09-07T05:05:56;21.20;65.30
7970;DHT22;4030;52.362;9.206;2023-09-07T05:08:23;21.30;65.40
7970;DHT22;4030;52.362;9.206;2023-09-07T05:10:58;21.30;65.40
7970;DHT22;4030;52.362;9.206;2023-09-07T05:13:25;21.20;65.30
7970;DHT22;4030;52.362;9.206;2023-09-07T05:15:52;21.20;65.50
7970;DHT22;4030;52.362;9.206;2023-09-07T05:18:19;20.60;64.70
7970;DHT22;4030;52.362;9.206;2023-09-07T05:20:45;21.20;65.40
7970;DHT22;4030;52.362;9.206;2023-09-07T05:23:21;21.20;65.50
7970;DHT22;4030;52.362;9.206;2023-09-07T05:25:49;21.20;65.50
7970;DHT22;4030;52.362;9.206;2023-09-07T05:28:18;21.20;65.60
7970;DHT22;4030;52.362;9.206;2023-09-07T05:30:44;21.20;65.70
7970;DHT22;4030;52.362;9.206;2023-09-07T05:33:11;21.40;66.00
7970;DHT22;4030;52.362;9.206;2023-09-07T05:35:38;21.20;65.90
7970;DHT22;4030;52.362;9.206;2023-09-07T05:38:05;21.20;66.00
7970;DHT22;4030;52.362;9.206;2023-09-07T05:40:35;21.20;66.00
7970;DHT22;4030;52.362;9.206;2023-09-07T05:43:02;21.20;66.10
7970;DHT22;4030;52.362;9.206;2023-09-07T05:45:30;21.20;66.10
7970;DHT22;4030;52.362;9.206;2023-09-07T05:47:57;21.20;66.10
7970;DHT22;4030;52.362;9.206;2023-09-07T05:50:23;21.20;66.20
7970;DHT22;4030;52.362;9.206;2023-09-07T05:52:48;21.30;66.30
7970;DHT22;4030;52.362;9.206;2023-09-07T05:55:14;21.30;66.30
7970;DHT22;4030;52.362;9.206;2023-09-07T05:57:40;21.30;66.40
7970;DHT22;4030;52.362;9.206;2023-09-07T06:00:06;21.30;66.50
7970;DHT22;4030;52.362;9.206;2023-09-07T06:02:32;21.30;66.60
7970;DHT22;4030;52.362;9.206;2023-09-07T06:04:58;21.30;66.60
7970;DHT22;4030;52.362;9.206;2023-09-07T06:07:23;21.30;66.60
7970;DHT22;4030;52.362;9.206;2023-09-07T06:09:49;21.40;66.80
7970;DHT22;4030;52.362;9.206;2023-09-07T06:12:15;21.40;66.80
7970;DHT22;4030;52.362;9.206;2023-09-07T06:14:40;21.40;66.90
7970;DHT22;4030;52.362;9.206;2023-09-07T06:17:06;21.50;67.10
7970;DHT22;4030;52.362;9.206;2023-09-07T06:19:32;21.50;67.20
7970;DHT22;4030;52.362;9.206;2023-09-07T06:21:58;21.50;67.40
7970;DHT22;4030;52.362;9.206;2023-09-07T06:24:23;21.50;67.30
7970;DHT22;4030;52.362;9.206;2023-09-07T06:26:49;21.60;67.50
7970;DHT22;4030;52.362;9.206;2023-09-07T06:29:15;21.60;67.50
7970;DHT22;4030;52.362;9.206;2023-09-07T06:31:40;21.60;67.50
7970;DHT22;4030;52.362;9.206;2023-09-07T06:34:06;21.70;67.60
7970;DHT22;4030;52.362;9.206;2023-09-07T06:36:32;21.70;67.70
7970;DHT22;4030;52.362;9.206;2023-09-07T06:38:57;21.80;68.00
7970;DHT22;4030;52.362;9.206;2023-09-07T06:41:24;21.80;67.80
7970;DHT22;4030;52.362;9.206;2023-09-07T06:43:49;21.90;68.00
7970;DHT22;4030;52.362;9.206;2023-09-07T06:46:16;21.90;68.10
7970;DHT22;4030;52.362;9.206;2023-09-07T06:48:41;22.00;68.10
7970;DHT22;4030;52.362;9.206;2023-09-07T06:51:07;22.00;68.10
7970;DHT22;4030;52.362;9.206;2023-09-07T06:53:34;22.10;68.00
7970;DHT22;4030;52.362;9.206;2023-09-07T06:56:01;22.10;68.00
7970;DHT22;4030;52.362;9.206;2023-09-07T06:58:28;22.20;68.10
7970;DHT22;4030;52.362;9.206;2023-09-07T07:00:58;22.30;68.30
7970;DHT22;4030;52.362;9.206;2023-09-07T07:03:28;22.30;68.30
7970;DHT22;4030;52.362;9.206;2023-09-07T07:05:55;22.40;68.30
7970;DHT22;4030;52.362;9.206;2023-09-07T07:08:21;22.50;68.40
7970;DHT22;4030;52.362;9.206;2023-09-07T07:10:47;22.50;68.50
7970;DHT22;4030;52.362;9.206;2023-09-07T07:13:12;22.60;68.50
7970;DHT22;4030;52.362;9.206;2023-09-07T07:15:38;22.60;68.50
7970;DHT22;4030;52.362;9.206;2023-09-07T07:18:04;22.70;68.60
7970;DHT22;4030;52.362;9.206;2023-09-07T07:20:40;22.80;68.60
7970;DHT22;4030;52.362;9.206;2023-09-07T07:23:07;22.90;68.60
7970;DHT22;4030;52.362;9.206;2023-09-07T07:25:33;23.00;68.50
7970;DHT22;4030;52.362;9.206;2023-09-07T07:28:00;23.00;68.40
7970;DHT22;4030;52.362;9.206;2023-09-07T07:30:33;23.10;68.40
7970;DHT22;4030;52.362;9.206;2023-09-07T07:33:03;23.20;68.30
7970;DHT22;4030;52.362;9.206;2023-09-07T07:35:29;23.30;68.30
7970;DHT22;4030;52.362;9.206;2023-09-07T07:37:55;23.40;68.30
7970;DHT22;4030;52.362;9.206;2023-09-07T07:40:21;23.50;68.10
7970;DHT22;4030;52.362;9.206;2023-09-07T07:42:47;23.60;68.10
7970;DHT22;4030;52.362;9.206;2023-09-07T07:45:13;23.60;68.00
7970;DHT22;4030;52.362;9.206;2023-09-07T07:47:41;23.70;67.90
7970;DHT22;4030;52.362;9.206;2023-09-07T07:50:07;23.80;67.80
7970;DHT22;4030;52.362;9.206;2023-09-07T07:52:33;23.90;67.70
7970;DHT22;4030;52.362;9.206;2023-09-07T07:55:00;24.10;67.70
7970;DHT22;4030;52.362;9.206;2023-09-07T07:57:25;23.50;66.80
7970;DHT22;4030;52.362;9.206;2023-09-07T07:59:51;24.20;67.20
7970;DHT22;4030;52.362;9.206;2023-09-07T08:02:17;24.40;67.10
7970;DHT22;4030;52.362;9.206;2023-09-07T08:04:42;24.50;66.80
7970;DHT22;4030;52.362;9.206;2023-09-07T08:07:08;24.60;66.80
7970;DHT22;4030;52.362;9.206;2023-09-07T08:09:34;24.70;66.80
7970;DHT22;4030;52.362;9.206;2023-09-07T08:12:00;24.80;66.60
7970;DHT22;4030;52.362;9.206;2023-09-07T08:14:29;24.90;66.60
7970;DHT22;4030;52.362;9.206;2023-09-07T08:16:56;25.00;66.60
7970;DHT22;4030;52.362;9.206;2023-09-07T08:19:22;25.20;66.40
7970;DHT22;4030;52.362;9.206;2023-09-07T08:21:48;25.30;66.20
7970;DHT22;4030;52.362;9.206;2023-09-07T08:24:14;25.50;66.20
7970;DHT22;4030;52.362;9.206;2023-09-07T08:26:40;25.50;66.00
7970;DHT22;4030;52.362;9.206;2023-09-07T08:29:06;25.70;65.90
7970;DHT22;4030;52.362;9.206;2023-09-07T08:31:36;25.80;65.70
7970;DHT22;4030;52.362;9.206;2023-09-07T08:34:04;25.90;65.40
7970;DHT22;4030;52.362;9.206;2023-09-07T08:36:31;26.10;65.30
7970;DHT22;4030;52.362;9.206;2023-09-07T08:38:59;26.20;65.00
7970;DHT22;4030;52.362;9.206;2023-09-07T08:41:34;26.40;64.70
7970;DHT22;4030;52.362;9.206;2023-09-07T08:44:07;26.50;64.40
7970;DHT22;4030;52.362;9.206;2023-09-07T08:46:34;26.60;64.00
7970;DHT22;4030;52.362;9.206;2023-09-07T08:49:00;26.80;63.70
7970;DHT22;4030;52.362;9.206;2023-09-07T08:51:27;27.00;63.50
7970;DHT22;4030;52.362;9.206;2023-09-07T08:53:57;27.10;63.20
7970;DHT22;4030;52.362;9.206;2023-09-07T08:56:23;27.20;62.90
7970;DHT22;4030;52.362;9.206;2023-09-07T08:58:49;27.40;62.60
7970;DHT22;4030;52.362;9.206;2023-09-07T09:01:15;27.60;62.20
7970;DHT22;4030;52.362;9.206;2023-09-07T09:03:42;27.70;61.70
7970;DHT22;4030;52.362;9.206;2023-09-07T09:06:10;27.80;61.40
7970;DHT22;4030;52.362;9.206;2023-09-07T09:08:43;28.00;61.20
7970;DHT22;4030;52.362;9.206;2023-09-07T09:11:10;28.20;61.00
7970;DHT22;4030;52.362;9.206;2023-09-07T09:13:36;28.40;60.70
7970;DHT22;4030;52.362;9.206;2023-09-07T09:16:02;28.50;60.50
7970;DHT22;4030;52.362;9.206;2023-09-07T09:18:29;28.60;60.00
7970;DHT22;4030;52.362;9.206;2023-09-07T09:20:55;28.60;59.70
7970;DHT22;4030;52.362;9.206;2023-09-07T09:23:21;28.70;59.40
7970;DHT22;4030;52.362;9.206;2023-09-07T09:25:50;28.70;59.30
7970;DHT22;4030;52.362;9.206;2023-09-07T09:28:16;28.80;59.10
7970;DHT22;4030;52.362;9.206;2023-09-07T09:30:42;28.80;58.80
7970;DHT22;4030;52.362;9.206;2023-09-07T09:33:11;28.90;58.40
7970;DHT22;4030;52.362;9.206;2023-09-07T09:35:37;28.90;58.00
7970;DHT22;4030;52.362;9.206;2023-09-07T09:38:04;29.00;58.10
7970;DHT22;4030;52.362;9.206;2023-09-07T09:40:33;29.10;58.30
7970;DHT22;4030;52.362;9.206;2023-09-07T09:43:01;29.30;58.40
7970;DHT22;4030;52.362;9.206;2023-09-07T09:45:28;29.30;58.00
7970;DHT22;4030;52.362;9.206;2023-09-07T09:47:55;29.40;57.50
7970;DHT22;4030;52.362;9.206;2023-09-07T09:50:25;29.40;57.40
7970;DHT22;4030;52.362;9.206;2023-09-07T09:52:52;29.60;57.40
7970;DHT22;4030;52.362;9.206;2023-09-07T09:55:18;29.70;57.40
7970;DHT22;4030;52.362;9.206;2023-09-07T09:57:44;29.80;56.70
7970;DHT22;4030;52.362;9.206;2023-09-07T10:00:10;29.90;57.10
7970;DHT22;4030;52.362;9.206;2023-09-07T10:02:46;30.00;56.10
7970;DHT22;4030;52.362;9.206;2023-09-07T10:05:15;30.10;56.50
7970;DHT22;4030;52.362;9.206;2023-09-07T10:07:45;30.30;55.90
7970;DHT22;4030;52.362;9.206;2023-09-07T10:10:14;30.40;55.70
7970;DHT22;4030;52.362;9.206;2023-09-07T10:12:41;30.50;55.30
7970;DHT22;4030;52.362;9.206;2023-09-07T10:15:20;30.60;55.10
7970;DHT22;4030;52.362;9.206;2023-09-07T10:17:46;30.70;54.80
7970;DHT22;4030;52.362;9.206;2023-09-07T10:20:19;30.80;54.60
7970;DHT22;4030;52.362;9.206;2023-09-07T10:22:48;30.90;54.50
7970;DHT22;4030;52.362;9.206;2023-09-07T10:25:23;31.00;54.10
7970;DHT22;4030;52.362;9.206;2023-09-07T10:27:49;31.10;53.70
7970;DHT22;4030;52.362;9.206;2023-09-07T10:30:14;31.20;53.50
7970;DHT22;4030;52.362;9.206;2023-09-07T10:32:48;31.30;53.60
7970;DHT22;4030;52.362;9.206;2023-09-07T10:35:18;31.40;53.60
7970;DHT22;4030;52.362;9.206;2023-09-07T10:37:47;31.60;53.20
7970;DHT22;4030;52.362;9.206;2023-09-07T10:40:19;31.60;52.30
7970;DHT22;4030;52.362;9.206;2023-09-07T10:42:46;31.80;52.00
7970;DHT22;4030;52.362;9.206;2023-09-07T10:45:14;31.90;51.30
7970;DHT22;4030;52.362;9.206;2023-09-07T10:47:45;32.00;50.90
7970;DHT22;4030;52.362;9.206;2023-09-07T10:50:14;32.20;50.90
7970;DHT22;4030;52.362;9.206;2023-09-07T10:52:41;32.30;51.10
7970;DHT22;4030;52.362;9.206;2023-09-07T10:55:10;32.40;50.40
7970;DHT22;4030;52.362;9.206;2023-09-07T10:57:46;32.50;50.40
7970;DHT22;4030;52.362;9.206;2023-09-07T11:00:13;32.60;50.00
7970;DHT22;4030;52.362;9.206;2023-09-07T11:02:41;32.80;49.80
7970;DHT22;4030;52.362;9.206;2023-09-07T11:05:08;32.90;49.80
7970;DHT22;4030;52.362;9.206;2023-09-07T11:07:35;33.00;49.10
7970;DHT22;4030;52.362;9.206;2023-09-07T11:10:01;33.10;48.50
7970;DHT22;4030;52.362;9.206;2023-09-07T11:12:36;33.20;47.70
7970;DHT22;4030;52.362;9.206;2023-09-07T11:15:08;33.40;47.60
7970;DHT22;4030;52.362;9.206;2023-09-07T11:17:37;33.50;47.20
7970;DHT22;4030;52.362;9.206;2023-09-07T11:20:06;33.50;47.10
7970;DHT22;4030;52.362;9.206;2023-09-07T11:22:33;33.60;47.10
7970;DHT22;4030;52.362;9.206;2023-09-07T11:25:01;33.70;46.60
7970;DHT22;4030;52.362;9.206;2023-09-07T11:27:32;33.80;46.30
7970;DHT22;4030;52.362;9.206;2023-09-07T11:29:58;33.90;45.90
7970;DHT22;4030;52.362;9.206;2023-09-07T11:32:33;33.90;45.40
7970;DHT22;4030;52.362;9.206;2023-09-07T11:34:59;34.10;45.30
7970;DHT22;4030;52.362;9.206;2023-09-07T11:37:26;34.10;44.80
7970;DHT22;4030;52.362;9.206;2023-09-07T11:39:51;34.20;44.90
7970;DHT22;4030;52.362;9.206;2023-09-07T11:42:17;34.20;44.70
7970;DHT22;4030;52.362;9.206;2023-09-07T11:44:43;34.30;44.80
7970;DHT22;4030;52.362;9.206;2023-09-07T11:47:09;34.40;44.80
7970;DHT22;4030;52.362;9.206;2023-09-07T11:49:34;34.40;44.50
7970;DHT22;4030;52.362;9.206;2023-09-07T11:52:00;34.50;44.60
7970;DHT22;4030;52.362;9.206;2023-09-07T11:54:26;34.60;44.30
7970;DHT22;4030;52.362;9.206;2023-09-07T11:56:52;34.70;44.20
7970;DHT22;4030;52.362;9.206;2023-09-07T11:59:18;34.70;43.80
7970;DHT22;4030;52.362;9.206;2023-09-07T12:01:44;34.80;43.60
7970;DHT22;4030;52.362;9.206;2023-09-07T12:04:10;34.80;43.50
7970;DHT22;4030;52.362;9.206;2023-09-07T12:06:36;34.90;43.40
7970;DHT22;4030;52.362;9.206;2023-09-07T12:09:06;34.90;43.20
7970;DHT22;4030;52.362;9.206;2023-09-07T12:11:33;35.00;43.00
7970;DHT22;4030;52.362;9.206;2023-09-07T12:13:59;35.00;42.90
7970;DHT22;4030;52.362;9.206;2023-09-07T12:16:28;35.10;42.50
7970;DHT22;4030;52.362;9.206;2023-09-07T12:18:54;35.20;42.20
7970;DHT22;4030;52.362;9.206;2023-09-07T12:21:20;35.20;41.70
7970;DHT22;4030;52.362;9.206;2023-09-07T12:23:46;35.20;41.50
7970;DHT22;4030;52.362;9.206;2023-09-07T12:26:14;35.30;41.00
7970;DHT22;4030;52.362;9.206;2023-09-07T12:28:42;35.30;41.00
7970;DHT22;4030;52.362;9.206;2023-09-07T12:31:07;35.40;40.90
7970;DHT22;4030;52.362;9.206;2023-09-07T12:33:33;35.50;40.90
7970;DHT22;4030;52.362;9.206;2023-09-07T12:35:59;35.50;40.70
7970;DHT22;4030;52.362;9.206;2023-09-07T12:38:25;35.60;40.40
7970;DHT22;4030;52.362;9.206;2023-09-07T12:40:54;35.60;40.30
7970;DHT22;4030;52.362;9.206;2023-09-07T12:43:20;35.70;40.20
7970;DHT22;4030;52.362;9.206;2023-09-07T12:45:46;35.80;40.50
7970;DHT22;4030;52.362;9.206;2023-09-07T12:48:12;35.90;40.90
7970;DHT22;4030;52.362;9.206;2023-09-07T12:50:37;36.00;40.80
7970;DHT22;4030;52.362;9.206;2023-09-07T12:53:05;36.00;40.20
7970;DHT22;4030;52.362;9.206;2023-09-07T12:55:31;36.10;39.70
7970;DHT22;4030;52.362;9.206;2023-09-07T12:57:58;36.10;40.00
7970;DHT22;4030;52.362;9.206;2023-09-07T13:00:24;36.20;40.10
7970;DHT22;4030;52.362;9.206;2023-09-07T13:02:50;36.30;40.20
7970;DHT22;4030;52.362;9.206;2023-09-07T13:05:15;36.40;39.40
7970;DHT22;4030;52.362;9.206;2023-09-07T13:07:41;36.30;39.20
7970;DHT22;4030;52.362;9.206;2023-09-07T13:10:09;36.50;39.20
7970;DHT22;4030;52.362;9.206;2023-09-07T13:12:36;36.40;38.90
7970;DHT22;4030;52.362;9.206;2023-09-07T13:15:03;36.50;38.20
7970;DHT22;4030;52.362;9.206;2023-09-07T13:17:29;36.60;37.80
7970;DHT22;4030;52.362;9.206;2023-09-07T13:19:55;36.60;37.50
7970;DHT22;4030;52.362;9.206;2023-09-07T13:22:20;36.70;37.20
7970;DHT22;4030;52.362;9.206;2023-09-07T13:24:46;36.70;37.10
7970;DHT22;4030;52.362;9.206;2023-09-07T13:27:12;36.80;36.80
7970;DHT22;4030;52.362;9.206;2023-09-07T13:29:37;36.80;37.00
7970;DHT22;4030;52.362;9.206;2023-09-07T13:32:03;37.00;36.90
7970;DHT22;4030;52.362;9.206;2023-09-07T13:34:29;37.00;36.50
7970;DHT22;4030;52.362;9.206;2023-09-07T13:36:55;37.10;37.10
7970;DHT22;4030;52.362;9.206;2023-09-07T13:39:22;37.20;36.20
7970;DHT22;4030;52.362;9.206;2023-09-07T13:41:48;37.20;36.40
7970;DHT22;4030;52.362;9.206;2023-09-07T13:44:16;37.30;36.70
7970;DHT22;4030;52.362;9.206;2023-09-07T13:46:43;37.30;36.30
7970;DHT22;4030;52.362;9.206;2023-09-07T13:49:10;37.30;35.90
7970;DHT22;4030;52.362;9.206;2023-09-07T13:51:35;37.40;35.90
7970;DHT22;4030;52.362;9.206;2023-09-07T13:54:05;37.50;35.80
7970;DHT22;4030;52.362;9.206;2023-09-07T13:56:32;37.60;35.90
7970;DHT22;4030;52.362;9.206;2023-09-07T13:58:58;37.80;35.40
7970;DHT22;4030;52.362;9.206;2023-09-07T14:01:24;38.30;34.40
7970;DHT22;4030;52.362;9.206;2023-09-07T14:03:50;39.00;33.50
7970;DHT22;4030;52.362;9.206;2023-09-07T14:06:16;39.70;32.70
7970;DHT22;4030;52.362;9.206;2023-09-07T14:08:43;40.60;31.80
7970;DHT22;4030;52.362;9.206;2023-09-07T14:11:10;41.60;30.80
7970;DHT22;4030;52.362;9.206;2023-09-07T14:13:36;42.40;29.80
7970;DHT22;4030;52.362;9.206;2023-09-07T14:16:02;43.10;28.90
7970;DHT22;4030;52.362;9.206;2023-09-07T14:18:28;43.70;28.60
7970;DHT22;4030;52.362;9.206;2023-09-07T14:20:54;44.20;28.10
7970;DHT22;4030;52.362;9.206;2023-09-07T14:23:23;44.60;28.20
7970;DHT22;4030;52.362;9.206;2023-09-07T14:25:52;44.80;27.30
7970;DHT22;4030;52.362;9.206;2023-09-07T14:28:18;44.40;27.30
7970;DHT22;4030;52.362;9.206;2023-09-07T14:30:44;43.70;28.10
7970;DHT22;4030;52.362;9.206;2023-09-07T14:33:09;42.90;28.30
7970;DHT22;4030;52.362;9.206;2023-09-07T14:35:35;42.30;28.70
7970;DHT22;4030;52.362;9.206;2023-09-07T14:38:01;41.80;28.90
7970;DHT22;4030;52.362;9.206;2023-09-07T14:40:27;41.40;29.40
7970;DHT22;4030;52.362;9.206;2023-09-07T14:42:52;40.80;30.10
7970;DHT22;4030;52.362;9.206;2023-09-07T14:45:19;40.10;30.80
7970;DHT22;4030;52.362;9.206;2023-09-07T14:47:45;39.60;31.60
7970;DHT22;4030;52.362;9.206;2023-09-07T14:50:11;39.00;32.20
7970;DHT22;4030;52.362;9.206;2023-09-07T14:52:36;38.50;32.80
7970;DHT22;4030;52.362;9.206;2023-09-07T14:55:07;38.10;33.50
7970;DHT22;4030;52.362;9.206;2023-09-07T14:57:33;37.70;33.60
7970;DHT22;4030;52.362;9.206;2023-09-07T15:00:02;37.40;33.90
7970;DHT22;4030;52.362;9.206;2023-09-07T15:02:29;37.10;34.70
7970;DHT22;4030;52.362;9.206;2023-09-07T15:04:55;36.80;35.00
7970;DHT22;4030;52.362;9.206;2023-09-07T15:07:21;36.50;35.10
7970;DHT22;4030;52.362;9.206;2023-09-07T15:09:49;36.30;36.30
7970;DHT22;4030;52.362;9.206;2023-09-07T15:12:15;36.10;35.50
7970;DHT22;4030;52.362;9.206;2023-09-07T15:14:40;35.90;35.60
7970;DHT22;4030;52.362;9.206;2023-09-07T15:17:06;35.70;36.30
7970;DHT22;4030;52.362;9.206;2023-09-07T15:19:33;35.50;36.50
7970;DHT22;4030;52.362;9.206;2023-09-07T15:22:00;35.30;36.60
7970;DHT22;4030;52.362;9.206;2023-09-07T15:24:25;35.20;36.90
7970;DHT22;4030;52.362;9.206;2023-09-07T15:26:51;35.10;37.20
7970;DHT22;4030;52.362;9.206;2023-09-07T15:29:17;34.90;37.50
7970;DHT22;4030;52.362;9.206;2023-09-07T15:31:43;34.70;37.60
7970;DHT22;4030;52.362;9.206;2023-09-07T15:34:09;34.60;38.30
7970;DHT22;4030;52.362;9.206;2023-09-07T15:36:34;34.50;37.40
7970;DHT22;4030;52.362;9.206;2023-09-07T15:39:01;34.40;37.60
7970;DHT22;4030;52.362;9.206;2023-09-07T15:41:26;34.30;38.20
7970;DHT22;4030;52.362;9.206;2023-09-07T15:43:54;34.10;38.20
7970;DHT22;4030;52.362;9.206;2023-09-07T15:46:20;34.00;38.30
7970;DHT22;4030;52.362;9.206;2023-09-07T15:48:46;33.90;38.50
7970;DHT22;4030;52.362;9.206;2023-09-07T15:51:12;33.80;38.70
7970;DHT22;4030;52.362;9.206;2023-09-07T15:53:38;33.70;38.90
7970;DHT22;4030;52.362;9.206;2023-09-07T15:56:04;33.60;39.10
7970;DHT22;4030;52.362;9.206;2023-09-07T15:58:30;33.50;39.20
7970;DHT22;4030;52.362;9.206;2023-09-07T16:00:57;33.40;39.30